Time;durP1;ratioP1;P1;durP2;ratioP2;P2;SDS_P1;SDS_P2;PMS_P1;PMS_P2;Temp;Humidity;BMP_temperature;BMP_pressure;BME280_temperature;BME280_humidity;BME280_pressure;Samples;Min_cycle;Max_cycle;Signal;HPM_P1;HPM_P2
2022/08/15 00:01:51;;;;;;;4.50;2.85;;;27.30;45.70;26.20;100008.00;;;;5089801;28;20400;-67
2022/08/15 00:04:37;;;;;;;4.15;3.05;;;27.30;45.70;26.10;100005.00;;;;5088589;28;20093;-67
2022/08/15 00:07:23;;;;;;;3.15;2.60;;;27.20;45.70;26.10;100001.00;;;;5082229;28;20066;-67
2022/08/15 00:10:09;;;;;;;5.13;2.90;;;27.30;45.70;26.10;100001.00;;;;5088184;28;20093;-67
2022/08/15 00:13:00;;;;;;;4.35;2.83;;;27.30;45.70;26.10;99996.00;;;;5074795;28;20040;-67
2022/08/15 00:15:47;;;;;;;3.45;2.72;;;27.30;45.70;26.10;100006.00;;;;5090014;28;20090;-67
2022/08/15 00:18:34;;;;;;;5.55;3.05;;;27.30;45.70;26.10;100001.00;;;;5083609;28;20036;-67
2022/08/15 00:21:22;;;;;;;4.47;2.80;;;27.30;45.70;26.10;100001.00;;;;5076903;28;20122;-67
2022/08/15 00:24:08;;;;;;;3.30;2.63;;;27.30;45.70;26.10;100005.00;;;;5081161;28;20456;-67
2022/08/15 00:26:55;;;;;;;4.78;2.60;;;27.30;45.70;26.10;100003.00;;;;5080834;28;20039;-67
2022/08/15 00:29:41;;;;;;;3.00;2.70;;;27.30;45.70;26.10;99996.00;;;;5074086;28;20090;-67
2022/08/15 00:32:27;;;;;;;3.77;2.57;;;27.30;45.80;26.10;99996.00;;;;5072485;28;20048;-67
2022/08/15 00:38:21;;;;;;;4.43;2.40;;;27.30;45.80;26.10;99985.00;;;;5085327;28;20123;-67
2022/08/15 00:44:21;;;;;;;4.07;2.50;;;27.30;45.80;26.10;99987.00;;;;5081848;28;20085;-67
2022/08/15 00:47:11;;;;;;;3.58;2.65;;;27.20;45.70;26.10;99990.00;;;;5066018;28;20136;-67
2022/08/15 00:49:57;;;;;;;4.93;2.80;;;27.30;45.80;26.10;99989.00;;;;5073768;28;20151;-67
2022/08/15 00:52:43;;;;;;;6.15;2.80;;;27.20;45.80;26.10;99988.00;;;;5080975;28;20123;-66
2022/08/15 00:55:30;;;;;;;5.35;2.63;;;27.20;45.80;26.10;99985.00;;;;5085560;28;20101;-67
2022/08/15 00:58:16;;;;;;;7.75;2.90;;;27.20;45.80;26.10;99982.00;;;;5073135;28;20036;-67
2022/08/15 01:01:03;;;;;;;5.72;2.95;;;27.30;45.90;26.10;99983.00;;;;5054213;28;20531;-67
2022/08/15 01:03:52;;;;;;;9.52;3.25;;;27.20;45.80;26.10;99972.00;;;;5072209;28;20036;-67
2022/08/15 01:06:38;;;;;;;4.22;2.78;;;27.30;45.90;26.10;99972.00;;;;5087631;28;20500;-67
2022/08/15 01:09:25;;;;;;;3.38;2.40;;;27.20;45.90;26.10;99977.00;;;;5077831;28;20039;-67
2022/08/15 01:12:20;;;;;;;3.63;2.63;;;27.20;45.90;26.10;99976.00;;;;5067610;28;20040;-67
2022/08/15 01:15:14;;;;;;;3.47;2.85;;;27.20;45.90;26.10;99975.00;;;;5080559;28;20051;-67
2022/08/15 01:18:00;;;;;;;3.45;2.40;;;27.20;45.90;26.10;99968.00;;;;5069861;28;20039;-67
2022/08/15 01:20:46;;;;;;;4.72;2.80;;;27.20;45.90;26.10;99968.00;;;;5080440;28;20044;-67
2022/08/15 01:24:09;;;;;;;4.80;2.78;;;27.20;45.80;26.10;99968.00;;;;5079237;28;20032;-67
2022/08/15 01:26:55;;;;;;;3.30;3.00;;;27.20;45.90;26.10;99963.00;;;;5067193;28;20059;-67
2022/08/15 01:29:41;;;;;;;5.03;3.00;;;27.20;45.80;26.10;99967.00;;;;5075873;28;20040;-67
2022/08/15 01:32:27;;;;;;;4.57;2.80;;;27.20;45.90;26.10;99961.00;;;;5098089;28;20048;-67
2022/08/15 01:35:13;;;;;;;5.68;3.08;;;27.20;45.90;26.10;99962.00;;;;5085399;28;20051;-67
2022/08/15 01:38:00;;;;;;;3.35;2.83;;;27.20;45.80;26.10;99962.00;;;;5090623;28;20040;-67
2022/08/15 01:41:04;;;;;;;5.15;3.60;;;27.30;45.90;26.10;99963.00;;;;5061582;28;21060;-67
2022/08/15 01:44:00;;;;;;;3.92;2.83;;;27.20;45.80;26.10;99965.00;;;;5062501;28;20480;-67
2022/08/15 01:46:55;;;;;;;3.58;2.85;;;27.20;45.80;26.10;99969.00;;;;5062505;28;20055;-67
2022/08/15 01:50:07;;;;;;;7.07;3.00;;;27.20;45.90;26.10;99962.00;;;;5082833;28;20055;-67
2022/08/15 01:53:04;;;;;;;2.90;2.67;;;27.30;45.90;26.10;99962.00;;;;5079685;28;20036;-67
2022/08/15 01:55:53;;;;;;;3.05;2.65;;;27.20;46.60;26.10;99954.00;;;;5070403;28;20054;-67
2022/08/15 01:58:41;;;;;;;3.30;2.95;;;27.20;45.90;26.10;99953.00;;;;5097455;28;20051;-66
2022/08/15 02:02:02;;;;;;;3.78;3.10;;;27.20;45.90;26.10;99948.00;;;;5075459;28;20047;-67
2022/08/15 02:04:48;;;;;;;3.17;2.88;;;27.20;45.90;26.10;99950.00;;;;5059453;28;20067;-67
2022/08/15 02:07:34;;;;;;;2.90;2.60;;;27.30;45.90;26.10;99942.00;;;;5093156;28;20036;-67
2022/08/15 02:10:20;;;;;;;6.25;2.88;;;27.20;45.80;26.10;99950.00;;;;5076400;28;20166;-67
2022/08/15 02:13:06;;;;;;;3.35;3.05;;;27.20;45.90;26.10;99941.00;;;;5074915;28;20036;-67
2022/08/15 02:15:52;;;;;;;5.15;3.00;;;27.20;45.80;26.10;99952.00;;;;5089015;28;20043;-67
2022/08/15 02:18:38;;;;;;;2.72;2.53;;;27.20;45.80;26.10;99941.00;;;;5077299;28;20063;-67
2022/08/15 02:21:25;;;;;;;4.50;3.13;;;27.20;45.90;26.10;99942.00;;;;5078323;28;20262;-67
2022/08/15 02:24:16;;;;;;;3.30;2.78;;;27.20;45.90;26.10;99944.00;;;;5074789;28;20041;-67
2022/08/15 02:27:02;;;;;;;4.65;2.63;;;27.20;45.90;26.10;99930.00;;;;5070561;28;20382;-67
2022/08/15 02:29:48;;;;;;;2.80;2.60;;;27.30;46.00;26.10;99938.00;;;;5071226;28;20093;-67
2022/08/15 02:32:38;;;;;;;4.90;3.10;;;27.20;45.90;26.10;99929.00;;;;5092530;28;20036;-67
2022/08/15 02:35:25;;;;;;;4.63;3.03;;;27.20;45.90;26.10;99918.00;;;;5088936;28;20051;-67
2022/08/15 02:38:11;;;;;;;5.13;2.97;;;27.20;45.90;26.10;99919.00;;;;5090994;28;20090;-67
2022/08/15 02:40:57;;;;;;;4.28;2.60;;;27.20;45.90;26.10;99919.00;;;;5090643;28;20035;-67
2022/08/15 02:43:43;;;;;;;2.95;2.75;;;27.20;45.80;26.10;99918.00;;;;5084393;28;20112;-67
2022/08/15 02:46:29;;;;;;;4.15;3.13;;;27.20;45.80;26.10;99931.00;;;;5076776;28;20054;-67
2022/08/15 02:49:18;;;;;;;4.40;2.97;;;27.20;45.90;26.10;99922.00;;;;5067954;28;20490;-67
2022/08/15 02:52:04;;;;;;;3.90;3.15;;;27.20;45.90;26.10;99923.00;;;;5077230;28;20379;-67
2022/08/15 02:54:50;;;;;;;3.53;3.08;;;27.20;45.90;26.10;99928.00;;;;5075765;28;20039;-67
2022/08/15 02:57:36;;;;;;;3.38;3.05;;;27.30;46.00;26.10;99920.00;;;;5089560;28;20044;-67
2022/08/15 03:00:23;;;;;;;3.33;2.90;;;27.20;45.80;26.10;99919.00;;;;5089299;28;20028;-67
2022/08/15 03:03:12;;;;;;;4.35;2.92;;;27.20;45.90;26.10;99926.00;;;;5086622;28;20432;-67
2022/08/15 03:05:58;;;;;;;3.58;3.10;;;27.20;45.90;26.10;99929.00;;;;5075910;28;20051;-67
2022/08/15 03:08:45;;;;;;;3.67;3.05;;;27.20;45.80;26.10;99920.00;;;;5097991;28;20115;-67
2022/08/15 03:11:31;;;;;;;5.38;3.45;;;27.30;46.00;26.10;99918.00;;;;5063949;28;20482;-67
2022/08/15 03:14:19;;;;;;;6.38;3.10;;;27.20;45.80;26.10;99927.00;;;;5078029;28;20056;-67
2022/08/15 03:17:08;;;;;;;4.68;3.20;;;27.20;45.90;26.10;99924.00;;;;5075196;28;20048;-67
2022/08/15 03:19:54;;;;;;;5.20;3.22;;;27.20;45.90;26.10;99930.00;;;;5085909;28;20044;-66
2022/08/15 03:22:42;;;;;;;4.90;3.58;;;27.10;45.80;26.00;99928.00;;;;5094458;28;20051;-67
2022/08/15 03:25:28;;;;;;;8.57;3.60;;;27.20;45.90;26.00;99927.00;;;;5072000;28;20305;-67
2022/08/15 03:28:20;;;;;;;3.22;2.92;;;27.20;45.90;26.00;99933.00;;;;5078894;28;20406;-67
2022/08/15 03:31:06;;;;;;;3.90;3.30;;;27.20;45.90;26.00;99941.00;;;;5088792;28;20056;-67
2022/08/15 03:33:52;;;;;;;7.88;3.83;;;27.20;45.90;26.00;99930.00;;;;5091531;28;20093;-67
2022/08/15 03:36:40;;;;;;;6.72;3.45;;;27.20;46.00;26.00;99936.00;;;;5086045;28;20520;-67
2022/08/15 03:39:26;;;;;;;4.43;3.47;;;27.20;46.10;26.10;99922.00;;;;5075504;28;20185;-67
2022/08/15 03:42:12;;;;;;;7.55;3.80;;;27.20;46.10;26.00;99925.00;;;;5090950;28;20474;-67
2022/08/15 03:44:58;;;;;;;4.65;3.53;;;27.20;46.00;26.00;99931.00;;;;5081576;28;20093;-67
2022/08/15 03:47:44;;;;;;;4.72;3.42;;;27.20;46.10;26.10;99927.00;;;;5090566;28;20473;-67
2022/08/15 03:50:32;;;;;;;4.13;3.50;;;27.20;46.10;26.10;99919.00;;;;5087991;28;20134;-66
2022/08/15 03:53:19;;;;;;;6.53;3.95;;;27.20;46.10;26.10;99918.00;;;;5079644;28;20047;-67
2022/08/15 03:56:05;;;;;;;5.82;3.70;;;27.20;46.10;26.10;99908.00;;;;5086145;28;20059;-66
2022/08/15 03:58:52;;;;;;;6.80;3.78;;;27.20;46.00;26.00;99909.00;;;;5079319;28;20097;-66
2022/08/15 04:01:38;;;;;;;6.18;3.85;;;27.20;46.00;26.00;99903.00;;;;5069173;28;20125;-67
2022/08/15 04:04:24;;;;;;;5.38;3.83;;;27.20;46.00;26.00;99894.00;;;;5075692;28;20036;-67
2022/08/15 04:07:11;;;;;;;6.15;3.63;;;27.20;46.00;26.00;99893.00;;;;5096946;28;20035;-67
2022/08/15 04:09:57;;;;;;;7.18;3.83;;;27.20;46.00;26.00;99889.00;;;;5088069;28;20405;-67
2022/08/15 04:12:43;;;;;;;3.90;3.53;;;27.20;46.00;26.00;99900.00;;;;5088730;28;20096;-66
2022/08/15 04:15:29;;;;;;;6.77;3.80;;;27.20;46.00;26.00;99894.00;;;;5065895;28;20126;-67
2022/08/15 04:18:15;;;;;;;6.57;3.40;;;27.20;46.00;26.00;99895.00;;;;5086585;28;20074;-67
2022/08/15 04:21:04;;;;;;;3.92;3.50;;;27.20;46.00;26.00;99897.00;;;;5084604;28;20057;-67
2022/08/15 04:23:50;;;;;;;5.07;3.58;;;27.20;46.00;26.00;99885.00;;;;5070714;28;20461;-67
2022/08/15 04:26:36;;;;;;;4.43;3.38;;;27.20;46.00;26.00;99887.00;;;;5090988;28;20491;-67
2022/08/15 04:29:22;;;;;;;4.80;3.35;;;27.20;46.00;26.00;99903.00;;;;5089814;28;20052;-67
2022/08/15 04:32:12;;;;;;;4.68;4.00;;;27.20;46.10;26.00;99900.00;;;;5086964;28;20047;-67
2022/08/15 04:35:02;;;;;;;3.83;3.45;;;27.20;46.10;26.00;99905.00;;;;5085885;28;20044;-67
2022/08/15 04:37:48;;;;;;;4.47;3.90;;;27.20;46.10;26.00;99902.00;;;;5076849;28;20040;-67
2022/08/15 04:40:34;;;;;;;4.35;3.75;;;27.20;46.10;26.00;99902.00;;;;5081835;28;20473;-67
2022/08/15 04:43:21;;;;;;;4.68;3.35;;;27.20;46.10;26.00;99906.00;;;;5076389;28;20659;-67
2022/08/15 04:46:08;;;;;;;;;;;27.20;46.10;26.00;99907.00;;;;5084318;28;20047;-66
2022/08/15 04:48:54;;;;;;;5.88;3.72;;;27.20;46.80;26.00;99907.00;;;;5072080;28;19962;-67
2022/08/15 04:51:40;;;;;;;4.72;3.67;;;27.20;46.00;26.00;99899.00;;;;5085292;28;20434;-67
2022/08/15 04:54:26;;;;;;;5.10;3.85;;;27.20;46.00;26.00;99913.00;;;;5071944;28;20051;-67
2022/08/15 04:57:13;;;;;;;4.07;3.67;;;27.20;46.10;26.00;99920.00;;;;5088133;28;20481;-67
2022/08/15 04:59:59;;;;;;;4.38;3.58;;;27.20;46.10;26.00;99916.00;;;;5070517;28;20252;-67
2022/08/15 05:03:04;;;;;;;3.85;3.45;;;27.20;46.10;26.00;99909.00;;;;5090264;28;20032;-67
2022/08/15 05:06:02;;;;;;;4.72;3.80;;;27.10;46.00;26.00;99908.00;;;;5073375;28;20084;-67
2022/08/15 05:08:48;;;;;;;3.97;3.47;;;27.20;46.10;26.00;99910.00;;;;5077638;28;20119;-67
2022/08/15 05:11:34;;;;;;;6.18;3.63;;;27.10;46.00;26.00;99910.00;;;;5067980;28;20398;-67
2022/08/15 05:14:20;;;;;;;4.82;3.85;;;27.10;46.00;26.00;99910.00;;;;5086551;28;20036;-67
2022/08/15 05:17:06;;;;;;;4.25;3.85;;;27.10;46.00;26.00;99900.00;;;;5070362;28;20063;-67
2022/08/15 05:19:52;;;;;;;5.38;4.45;;;27.10;46.00;26.00;99908.00;;;;5084475;28;20031;-67
2022/08/15 05:22:55;;;;;;;5.68;3.78;;;27.20;46.10;26.00;99909.00;;;;5083389;28;20462;-67
2022/08/15 05:25:44;;;;;;;6.25;3.80;;;27.10;46.00;26.00;99906.00;;;;5066313;28;20499;-67
2022/08/15 05:28:30;;;;;;;5.45;4.03;;;27.10;46.10;26.00;99906.00;;;;5071574;28;20070;-67
2022/08/15 05:31:16;;;;;;;4.25;3.85;;;27.10;46.00;26.00;99899.00;;;;5085915;28;20043;-67
2022/08/15 05:34:03;;;;;;;4.07;3.55;;;27.10;46.10;26.00;99899.00;;;;5085772;28;20390;-67
2022/08/15 05:36:50;;;;;;;4.93;3.85;;;27.10;46.10;26.00;99897.00;;;;5091694;28;20043;-67
2022/08/15 05:39:36;;;;;;;21.63;5.15;;;27.10;46.10;26.00;99895.00;;;;5081242;28;20484;-67
2022/08/15 05:42:35;;;;;;;10.57;3.88;;;27.10;46.20;26.00;99900.00;;;;5075832;28;20036;-67
2022/08/15 05:45:39;;;;;;;9.80;4.00;;;27.10;46.20;26.00;99896.00;;;;5084201;28;20089;-67
2022/08/15 05:48:31;;;;;;;8.98;4.10;;;27.10;46.30;26.00;99896.00;;;;5058106;28;20101;-66
2022/08/15 05:52:12;;;;;;;6.60;3.72;;;27.10;46.30;26.00;99898.00;;;;5089992;28;20055;-66
2022/08/15 05:55:19;;;;;;;6.60;4.03;;;27.10;46.20;26.00;99900.00;;;;5084691;28;20047;-67
2022/08/15 05:58:40;;;;;;;5.90;3.83;;;27.10;46.20;26.00;99907.00;;;;5081518;28;20686;-67
2022/08/15 06:01:44;;;;;;;6.00;3.58;;;27.20;46.30;26.00;99901.00;;;;5075981;28;20082;-67
2022/08/15 06:04:51;;;;;;;6.43;3.50;;;27.10;46.30;26.00;99899.00;;;;5084113;28;20044;-67
2022/08/15 06:07:38;;;;;;;11.90;4.50;;;27.10;46.30;26.00;99905.00;;;;5092507;28;20122;-67
2022/08/15 06:10:36;;;;;;;5.47;3.75;;;27.10;47.00;26.00;99915.00;;;;5088774;28;20370;-67
2022/08/15 06:13:27;;;;;;;6.90;3.67;;;27.10;46.40;26.00;99916.00;;;;5070137;28;20055;-67
2022/08/15 06:16:17;;;;;;;3.80;3.38;;;27.10;46.40;26.00;99911.00;;;;5074551;28;20052;-67
2022/08/15 06:19:20;;;;;;;4.53;3.60;;;27.10;47.10;26.00;99915.00;;;;5062958;28;20054;-67
2022/08/15 06:22:29;;;;;;;4.45;3.47;;;27.10;46.40;26.00;99924.00;;;;5068877;28;20587;-67
2022/08/15 06:25:32;;;;;;;4.10;3.53;;;27.10;46.40;26.00;99914.00;;;;5078125;28;20139;-67
2022/08/15 06:28:48;;;;;;;4.18;3.65;;;27.10;46.50;26.00;99902.00;;;;5082641;28;20065;-67
2022/08/15 06:31:43;;;;;;;4.72;3.58;;;27.10;46.40;26.00;99906.00;;;;5060998;28;20044;-67
2022/08/15 06:34:51;;;;;;;6.68;3.80;;;27.10;46.40;26.00;99910.00;;;;5078467;28;20457;-67
2022/08/15 06:38:04;;;;;;;4.25;3.30;;;27.10;46.40;26.00;99917.00;;;;5089667;28;20128;-67
2022/08/15 06:40:59;;;;;;;4.90;3.60;;;27.10;46.50;26.00;99907.00;;;;5077393;28;20067;-67
2022/08/15 06:43:46;;;;;;;5.05;3.78;;;27.10;46.40;26.00;99915.00;;;;5069384;28;20128;-67
2022/08/15 06:46:35;;;;;;;5.57;3.93;;;27.10;46.40;26.00;99915.00;;;;5077459;28;20051;-66
2022/08/15 06:49:22;;;;;;;7.28;4.40;;;27.10;46.60;26.00;99907.00;;;;5062034;28;20162;-67
2022/08/15 06:52:08;;;;;;;4.30;3.10;;;27.10;46.50;26.00;99914.00;;;;5075080;28;20492;-66
2022/08/15 06:54:54;;;;;;;3.97;3.45;;;27.10;46.50;26.00;99908.00;;;;5072751;28;20067;-66
2022/08/15 06:58:04;;;;;;;8.30;4.20;;;27.10;46.50;26.00;99904.00;;;;5090041;28;20044;-67
2022/08/15 07:01:29;;;;;;;5.90;3.72;;;27.10;47.20;26.00;99908.00;;;;5067332;28;20099;-67
2022/08/15 07:04:42;;;;;;;5.65;3.97;;;27.10;46.60;26.00;99913.00;;;;5023817;28;20048;-67
2022/08/15 07:08:02;;;;;;;7.25;4.15;;;27.10;46.60;25.90;99911.00;;;;5073639;28;20405;-67
2022/08/15 07:11:01;;;;;;;8.23;4.22;;;27.10;46.60;25.90;99910.00;;;;5061742;28;20036;-67
2022/08/15 07:14:09;;;;;;;4.60;4.07;;;27.10;46.60;26.00;99918.00;;;;5085245;28;20036;-67
2022/08/15 07:17:12;;;;;;;5.63;4.30;;;27.10;46.70;26.00;99912.00;;;;5087347;28;20040;-66
2022/08/15 07:19:58;;;;;;;5.75;4.40;;;27.10;46.70;26.00;99913.00;;;;5072463;28;20473;-67
2022/08/15 07:22:44;;;;;;;5.60;4.25;;;27.10;46.70;26.00;99932.00;;;;5086826;28;20125;-66
2022/08/15 07:25:32;;;;;;;6.97;5.72;;;27.10;46.60;26.00;99935.00;;;;5075135;28;20123;-67
2022/08/15 07:28:24;;;;;;;6.28;4.38;;;27.10;46.50;26.00;99936.00;;;;5091496;28;20044;-67
2022/08/15 07:31:17;;;;;;;7.72;4.75;;;27.00;46.50;26.00;99930.00;;;;5069900;28;20114;-66
2022/08/15 07:34:06;;;;;;;7.45;4.90;;;27.10;46.50;26.00;99935.00;;;;5077918;28;20115;-67
2022/08/15 07:37:00;;;;;;;9.05;5.22;;;27.10;46.50;26.00;99935.00;;;;5077660;28;20050;-67
2022/08/15 07:39:56;;;;;;;4.93;4.43;;;27.10;46.40;26.00;99933.00;;;;5072148;28;20048;-67
2022/08/15 07:42:42;;;;;;;8.43;4.78;;;27.10;46.40;26.00;99936.00;;;;5076772;28;20040;-66
2022/08/15 07:45:38;;;;;;;6.03;4.90;;;27.10;46.40;26.00;99933.00;;;;5055070;28;20040;-67
2022/08/15 07:48:27;;;;;;;7.82;5.38;;;27.10;47.20;26.00;99946.00;;;;5062791;28;20043;-67
2022/08/15 07:51:26;;;;;;;6.72;4.60;;;27.10;46.40;26.00;99937.00;;;;5078986;28;20083;-67
2022/08/15 07:54:42;;;;;;;6.88;4.88;;;27.10;46.50;26.00;99933.00;;;;5070615;28;20036;-67
2022/08/15 07:57:34;;;;;;;8.93;5.10;;;27.00;46.40;26.00;99940.00;;;;5089569;28;20070;-67
2022/08/15 08:00:25;;;;;;;11.60;5.25;;;27.10;46.40;26.00;99956.00;;;;5072942;28;20044;-67
2022/08/15 08:03:17;;;;;;;9.18;5.20;;;27.10;46.40;26.00;99959.00;;;;5093463;28;20035;-66
2022/08/15 08:06:36;;;;;;;8.32;5.10;;;27.10;46.40;26.00;99962.00;;;;5066132;28;20066;-67
2022/08/15 08:09:45;;;;;;;13.27;5.28;;;27.10;46.40;26.00;99949.00;;;;5079595;28;20069;-67
2022/08/15 08:12:53;;;;;;;13.57;5.10;;;27.10;46.40;26.00;99952.00;;;;5068819;28;20094;-66
2022/08/15 08:15:50;;;;;;;13.77;5.32;;;27.10;46.40;26.00;99951.00;;;;5079901;28;20117;-66
2022/08/15 08:18:47;;;;;;;23.08;6.00;;;27.10;46.40;26.00;99960.00;;;;5089932;28;20249;-67
2022/08/15 08:22:00;;;;;;;29.60;6.47;;;27.10;46.40;26.00;99962.00;;;;5081572;28;20040;-66
2022/08/15 08:25:10;;;;;;;8.45;5.78;;;27.10;46.40;26.00;99964.00;;;;5082839;28;20418;-66
2022/08/15 08:28:08;;;;;;;12.32;5.90;;;27.10;46.40;26.00;99968.00;;;;5066907;28;20046;-66
2022/08/15 08:31:16;;;;;;;9.80;5.85;;;27.10;46.30;26.00;99974.00;;;;5069587;28;20032;-66
2022/08/15 08:34:39;;;;;;;8.73;5.80;;;27.10;46.40;26.00;99968.00;;;;5060447;28;20055;-66
2022/08/15 08:37:41;;;;;;;8.07;5.63;;;27.10;46.30;26.00;99966.00;;;;5077890;28;20032;-66
2022/08/15 08:44:10;;;;;;;7.28;5.60;;;27.10;46.20;25.90;99966.00;;;;5074431;28;20042;-67
2022/08/15 08:47:35;;;;;;;8.75;5.68;;;27.10;46.20;25.90;99968.00;;;;5086864;28;20051;-66
2022/08/15 08:50:36;;;;;;;6.82;5.25;;;27.10;46.20;25.90;99962.00;;;;5071063;28;20072;-69
2022/08/15 08:53:59;;;;;;;6.15;5.55;;;27.10;46.30;25.90;99967.00;;;;5076671;28;20039;-65
2022/08/15 08:56:47;;;;;;;6.15;5.55;;;27.10;46.30;26.00;99968.00;;;;5064990;28;20051;-65
2022/08/15 08:59:45;;;;;;;9.00;5.43;;;27.10;46.30;26.00;99963.00;;;;5061193;28;20044;-65
2022/08/15 09:02:44;;;;;;;6.60;5.70;;;27.10;46.20;25.90;99961.00;;;;5076622;28;20527;-64
2022/08/15 09:05:37;;;;;;;8.02;6.13;;;27.10;46.20;26.00;99968.00;;;;5074184;28;20100;-64
2022/08/15 09:08:51;;;;;;;7.30;5.55;;;27.10;46.20;26.00;99962.00;;;;5073979;28;20128;-64
2022/08/15 09:11:47;;;;;;;7.47;4.97;;;27.10;46.20;26.00;99968.00;;;;5065480;28;20118;-64
2022/08/15 09:14:37;;;;;;;7.78;5.70;;;27.10;46.20;26.00;99975.00;;;;5085243;28;20048;-64
2022/08/15 09:17:24;;;;;;;10.65;5.32;;;27.10;46.20;26.00;99966.00;;;;5079902;28;20096;-64
2022/08/15 09:20:20;;;;;;;6.87;5.60;;;27.10;46.20;26.00;99971.00;;;;5075409;28;20097;-64
2022/08/15 09:23:12;;;;;;;6.47;5.20;;;27.10;46.30;26.00;99982.00;;;;5046433;28;20666;-64
2022/08/15 09:26:15;;;;;;;9.25;5.07;;;27.10;46.20;26.00;99979.00;;;;5057685;28;20048;-65
2022/08/15 09:29:06;;;;;;;5.85;5.25;;;27.10;46.20;26.00;99975.00;;;;5074109;28;20043;-65
2022/08/15 09:32:20;;;;;;;6.60;4.85;;;27.10;46.20;26.00;99974.00;;;;5076408;28;20043;-64
2022/08/15 09:35:18;;;;;;;8.77;5.20;;;27.10;46.20;26.00;99961.00;;;;5078163;28;20398;-65
2022/08/15 09:38:17;;;;;;;7.28;4.70;;;27.10;46.20;26.00;99970.00;;;;5067952;28;20062;-64
2022/08/15 09:41:55;;;;;;;7.80;5.05;;;27.20;46.20;26.00;99974.00;;;;5075487;28;20047;-65
2022/08/15 09:45:13;;;;;;;8.32;5.05;;;27.10;46.10;26.00;99970.00;;;;5065647;28;20074;-64
2022/08/15 09:48:18;;;;;;;6.23;5.00;;;27.10;46.00;26.00;99982.00;;;;5075856;28;20452;-66
2022/08/15 09:51:13;;;;;;;6.60;4.53;;;27.10;46.00;26.00;99980.00;;;;5092890;28;20142;-66
2022/08/15 09:54:07;;;;;;;5.88;4.57;;;27.10;46.00;26.00;99980.00;;;;5072650;28;20097;-66
2022/08/15 09:57:21;;;;;;;6.85;4.35;;;27.10;46.10;26.00;99981.00;;;;5075923;28;20035;-66
2022/08/15 10:00:52;;;;;;;8.52;4.55;;;27.10;46.00;26.00;99971.00;;;;5084733;28;20090;-66
2022/08/15 10:03:44;;;;;;;5.10;4.20;;;27.10;45.90;26.00;99968.00;;;;5080572;28;20496;-66
2022/08/15 10:06:51;;;;;;;5.95;4.25;;;27.10;45.90;26.00;99979.00;;;;5089420;28;20044;-66
2022/08/15 10:09:41;;;;;;;5.43;4.28;;;27.10;45.80;26.00;99981.00;;;;5092287;28;20386;-66
2022/08/15 10:12:28;;;;;;;7.32;4.43;;;27.10;45.80;26.00;99984.00;;;;5064157;28;20064;-66
2022/08/15 10:15:31;;;;;;;5.77;4.20;;;27.10;45.80;26.00;99980.00;;;;5068244;28;20089;-66
2022/08/15 10:18:23;;;;;;;6.68;3.97;;;27.10;45.90;26.00;99981.00;;;;5091967;28;20381;-66
2022/08/15 10:21:19;;;;;;;6.70;3.47;;;27.10;45.90;26.00;99979.00;;;;5090323;28;20039;-66
2022/08/15 10:24:24;;;;;;;4.75;4.20;;;27.10;45.80;26.00;99980.00;;;;5077506;28;20047;-66
2022/08/15 10:27:20;;;;;;;4.63;3.72;;;27.10;45.80;26.00;99978.00;;;;5083014;28;20044;-66
2022/08/15 10:30:13;;;;;;;4.03;3.50;;;27.10;45.80;26.00;99977.00;;;;5071076;28;20044;-66
2022/08/15 10:33:00;;;;;;;4.72;3.60;;;27.10;45.70;26.00;99979.00;;;;5065459;28;20043;-66
2022/08/15 10:35:47;;;;;;;7.13;3.60;;;27.10;45.80;26.00;99974.00;;;;5075098;28;20736;-66
2022/08/15 10:38:33;;;;;;;4.22;3.83;;;27.10;45.80;26.00;99975.00;;;;5093009;28;20047;-66
2022/08/15 10:42:03;;;;;;;5.55;3.47;;;27.10;45.80;26.00;99986.00;;;;5072714;28;20117;-66
2022/08/15 10:45:27;;;;;;;4.97;3.30;;;27.10;45.80;26.00;99988.00;;;;5054414;28;20036;-66
2022/08/15 10:48:24;;;;;;;3.50;3.20;;;27.10;45.80;26.00;99986.00;;;;5073457;28;20044;-66
2022/08/15 10:51:34;;;;;;;5.43;3.22;;;27.10;45.80;26.00;99987.00;;;;5071363;28;20043;-66
2022/08/15 10:54:55;;;;;;;6.63;3.25;;;27.10;45.80;26.00;99992.00;;;;5076154;28;20044;-66
2022/08/15 10:57:51;;;;;;;12.40;3.78;;;27.10;45.80;26.00;100011.00;;;;5077940;28;20040;-66
2022/08/15 11:01:06;;;;;;;5.30;3.38;;;27.20;45.90;26.00;100014.00;;;;5074586;28;20044;-66
2022/08/15 11:04:01;;;;;;;5.47;3.38;;;27.20;45.80;26.00;100035.00;;;;5076197;28;20036;-66
2022/08/15 11:06:48;;;;;;;4.95;3.45;;;27.20;45.80;26.00;100024.00;;;;5078908;28;20043;-66
2022/08/15 11:09:34;;;;;;;4.38;3.30;;;27.10;45.80;26.00;100029.00;;;;5090099;28;20036;-66
2022/08/15 11:12:22;;;;;;;4.72;3.40;;;27.20;45.80;26.00;100032.00;;;;5073759;28;20044;-66
2022/08/15 11:15:20;;;;;;;3.65;3.25;;;27.10;45.70;26.00;100025.00;;;;5073276;28;20107;-66
2022/08/15 11:18:08;;;;;;;4.60;3.45;;;27.10;45.70;26.00;100028.00;;;;5093634;28;20400;-66
2022/08/15 11:21:23;;;;;;;5.22;3.38;;;27.20;45.70;26.00;100036.00;;;;5069191;28;20551;-66
2022/08/15 11:24:10;;;;;;;3.65;3.20;;;27.20;45.70;26.00;100029.00;;;;5075755;28;20047;-66
2022/08/15 11:27:21;;;;;;;7.30;3.60;;;27.10;45.70;26.00;100026.00;;;;5080135;28;20031;-66
2022/08/15 11:30:08;;;;;;;4.38;3.10;;;27.10;45.70;26.00;100026.00;;;;5065609;28;20047;-66
2022/08/15 11:32:54;;;;;;;7.73;3.30;;;27.20;45.70;26.00;100027.00;;;;5091652;28;20138;-66
2022/08/15 11:35:40;;;;;;;4.25;3.60;;;27.20;45.70;26.00;100029.00;;;;5086493;28;20032;-66
2022/08/15 11:38:26;;;;;;;3.55;3.08;;;27.20;45.80;26.10;100040.00;;;;5078351;28;20036;-66
2022/08/15 11:41:26;;;;;;;3.53;3.20;;;27.20;45.80;26.00;100034.00;;;;5043704;28;20037;-66
2022/08/15 11:44:12;;;;;;;3.50;3.20;;;27.10;45.70;26.00;100035.00;;;;5076922;28;20041;-66
2022/08/15 11:46:58;;;;;;;3.85;2.85;;;27.10;45.70;26.00;100038.00;;;;5063056;28;20071;-66
2022/08/15 11:49:55;;;;;;;3.55;3.05;;;27.20;45.80;26.00;100041.00;;;;5075565;28;20075;-66
2022/08/15 11:52:56;;;;;;;5.65;3.03;;;27.10;46.40;26.00;100043.00;;;;5080826;28;20048;-66
2022/08/15 11:55:46;;;;;;;4.05;2.85;;;27.10;45.70;26.00;100047.00;;;;5082857;28;20047;-66
2022/08/15 11:58:38;;;;;;;3.92;3.38;;;27.20;45.80;26.00;100045.00;;;;5072541;28;20122;-66
2022/08/15 12:01:29;;;;;;;5.03;3.17;;;27.20;45.70;26.00;100049.00;;;;5085841;28;20024;-66
2022/08/15 12:04:27;;;;;;;6.55;3.40;;;27.10;45.60;26.00;100052.00;;;;5071601;28;20043;-66
2022/08/15 12:07:27;;;;;;;4.75;2.92;;;26.90;45.50;26.00;100064.00;;;;5059579;28;20048;-66
2022/08/15 12:10:32;;;;;;;4.82;3.50;;;27.20;45.70;26.00;100065.00;;;;5070730;28;20040;-66
2022/08/15 12:13:18;;;;;;;4.32;2.72;;;27.20;45.80;26.00;100068.00;;;;5087890;28;20044;-66
2022/08/15 12:16:05;;;;;;;3.95;3.08;;;27.20;45.90;26.00;100065.00;;;;5061910;28;20090;-66
2022/08/15 12:18:52;;;;;;;7.30;3.17;;;27.20;45.90;26.00;100067.00;;;;5093070;28;20027;-66
2022/08/15 12:21:47;;;;;;;6.47;3.10;;;27.20;46.00;26.00;100069.00;;;;5089732;28;20246;-66
2022/08/15 12:24:35;;;;;;;5.22;3.35;;;27.20;46.10;26.00;100069.00;;;;5074112;28;20074;-66
2022/08/15 12:27:21;;;;;;;3.97;2.90;;;27.20;46.10;26.00;100077.00;;;;5063854;28;20043;-66
2022/08/15 12:30:10;;;;;;;3.33;2.67;;;27.20;46.10;26.00;100084.00;;;;5084785;28;20074;-66
2022/08/15 12:32:56;;;;;;;6.57;3.10;;;27.20;46.10;26.00;100085.00;;;;5070930;28;20516;-66
2022/08/15 12:35:42;;;;;;;4.30;3.05;;;27.20;46.20;26.00;100089.00;;;;5074767;28;20089;-66
2022/08/15 12:38:35;;;;;;;3.13;2.87;;;27.20;46.20;26.00;100085.00;;;;5092553;28;20060;-66
2022/08/15 12:41:21;;;;;;;3.45;2.72;;;27.20;46.20;26.00;100081.00;;;;5087778;28;20447;-66
2022/08/15 12:44:17;;;;;;;4.25;2.75;;;27.20;46.10;26.00;100089.00;;;;5074705;28;20451;-66
2022/08/15 12:47:04;;;;;;;3.95;2.88;;;27.20;46.10;26.10;100088.00;;;;5077247;28;20111;-66
2022/08/15 12:49:50;;;;;;;4.47;2.80;;;27.20;46.10;26.10;100092.00;;;;5057544;28;20036;-66
2022/08/15 12:52:36;;;;;;;3.80;2.70;;;27.20;46.20;26.10;100095.00;;;;5072342;28;20401;-66
2022/08/15 12:55:22;;;;;;;2.47;2.28;;;27.20;46.10;26.10;100092.00;;;;5081392;28;20461;-66
2022/08/15 12:58:10;;;;;;;3.88;2.47;;;27.20;46.10;26.10;100094.00;;;;5069182;28;20546;-66
2022/08/15 13:00:57;;;;;;;3.08;2.25;;;27.20;46.10;26.10;100088.00;;;;5059018;28;20062;-66